Time;durP1;ratioP1;P1;durP2;ratioP2;P2;SDS_P1;SDS_P2;PMS_P1;PMS_P2;Temp;Humidity;BMP_temperature;BMP_pressure;BME280_temperature;BME280_humidity;BME280_pressure;Samples;Min_cycle;Max_cycle;Signal;HPM_P1;HPM_P2
2023/06/21 00:00:40;;;;;;;6.95;5.47;;;;;;;;;;5053657;28;20024;-60
2023/06/21 00:03:06;;;;;;;7.22;5.90;;;;;;;;;;5054087;28;20076;-60
2023/06/21 00:05:32;;;;;;;5.80;5.22;;;;;;;;;;5053884;28;20053;-60
2023/06/21 00:07:58;;;;;;;6.47;5.82;;;;;;;;;;5053314;28;20417;-60
2023/06/21 00:10:27;;;;;;;6.90;6.20;;;;;;;;;;5053451;28;20018;-60
2023/06/21 00:12:53;;;;;;;6.35;5.70;;;;;;;;;;5053432;28;20025;-60
2023/06/21 00:15:20;;;;;;;5.90;5.30;;;;;;;;;;5053625;28;20128;-60
2023/06/21 00:17:45;;;;;;;6.47;5.88;;;;;;;;;;5053959;28;20414;-60
2023/06/21 00:20:12;;;;;;;8.18;7.03;;;;;;;;;;5053182;28;20020;-60
2023/06/21 00:22:38;;;;;;;6.20;5.60;;;;;;;;;;5053284;28;20551;-60
2023/06/21 00:25:05;;;;;;;5.88;5.28;;;;;;;;;;5053973;28;20115;-60
2023/06/21 00:27:31;;;;;;;6.93;5.80;;;;;;;;;;5053740;28;20108;-60
2023/06/21 00:29:57;;;;;;;6.80;5.97;;;;;;;;;;5053893;28;20474;-60
2023/06/21 00:32:23;;;;;;;9.43;5.63;;;;;;;;;;5053343;28;20348;-60
2023/06/21 00:34:49;;;;;;;6.80;5.80;;;;;;;;;;5053644;28;20025;-60
2023/06/21 00:37:15;;;;;;;8.35;6.10;;;;;;;;;;5053848;28;20082;-60
2023/06/21 00:39:41;;;;;;;6.95;5.68;;;;;;;;;;5053314;28;20074;-60
2023/06/21 00:42:07;;;;;;;6.47;5.57;;;;;;;;;;5053192;28;20025;-60
2023/06/21 00:44:33;;;;;;;6.20;5.28;;;;;;;;;;5053754;28;20029;-59
2023/06/21 00:46:59;;;;;;;7.05;6.05;;;;;;;;;;5056573;28;20100;-60
2023/06/21 00:49:27;;;;;;;6.63;5.93;;;;;;;;;;5057041;28;20179;-60
2023/06/21 00:51:57;;;;;;;9.15;5.65;;;;;;;;;;5057182;28;20056;-60
2023/06/21 00:54:23;;;;;;;7.22;6.53;;;;;;;;;;5056881;28;20025;-60
2023/06/21 00:56:49;;;;;;;6.72;5.45;;;;;;;;;;5056955;28;20029;-60
2023/06/21 00:59:15;;;;;;;8.25;6.05;;;;;;;;;;5057185;28;20033;-60
2023/06/21 01:01:41;;;;;;;5.78;5.22;;;;;;;;;;5057118;28;20466;-60
2023/06/21 01:04:08;;;;;;;12.13;6.22;;;;;;;;;;5056970;28;20033;-60
2023/06/21 01:06:49;;;;;;;7.30;5.57;;;;;;;;;;5057295;28;20021;-60
2023/06/21 01:09:18;;;;;;;5.90;5.30;;;;;;;;;;5056577;28;20040;-60
2023/06/21 01:12:00;;;;;;;6.57;5.97;;;;;;;;;;5056552;28;20043;-60
2023/06/21 01:14:50;;;;;;;6.35;5.43;;;;;;;;;;5056699;28;20525;-60
2023/06/21 01:17:18;;;;;;;6.93;6.30;;;;;;;;;;5057103;28;20031;-60
2023/06/21 01:19:51;;;;;;;7.40;5.93;;;;;;;;;;5056786;28;20087;-60
2023/06/21 01:22:32;;;;;;;6.13;5.43;;;;;;;;;;5056377;28;20025;-60
2023/06/21 01:25:17;;;;;;;8.20;6.22;;;;;;;;;;5056720;28;20036;-59
2023/06/21 01:28:01;;;;;;;6.28;5.78;;;;;;;;;;5056907;28;20402;-60
2023/06/21 01:30:30;;;;;;;7.10;5.60;;;;;;;;;;5056783;28;20366;-60
2023/06/21 01:32:56;;;;;;;6.78;5.50;;;;;;;;;;5056254;28;20068;-59
2023/06/21 01:35:24;;;;;;;7.03;5.65;;;;;;;;;;5056154;28;20108;-60
2023/06/21 01:37:50;;;;;;;8.80;5.88;;;;;;;;;;5056670;28;20033;-60
2023/06/21 01:40:16;;;;;;;8.60;6.18;;;;;;;;;;5055895;28;20620;-59
2023/06/21 01:42:42;;;;;;;6.57;5.30;;;;;;;;;;5056016;28;20143;-60
2023/06/21 01:45:08;;;;;;;5.85;5.07;;;;;;;;;;5056068;28;20029;-60
2023/06/21 01:47:35;;;;;;;5.90;5.28;;;;;;;;;;5055939;28;20111;-60
2023/06/21 01:50:02;;;;;;;6.20;5.60;;;;;;;;;;5055932;28;20021;-60
2023/06/21 01:52:28;;;;;;;5.90;5.30;;;;;;;;;;5056428;28;20056;-60
2023/06/21 01:54:54;;;;;;;5.95;5.28;;;;;;;;;;5056100;28;20036;-60
2023/06/21 01:57:21;;;;;;;5.95;5.38;;;;;;;;;;5055722;28;20463;-60
2023/06/21 01:59:49;;;;;;;6.65;5.63;;;;;;;;;;5056261;28;20060;-60
2023/06/21 02:02:15;;;;;;;7.03;6.32;;;;;;;;;;5055558;28;20097;-60
2023/06/21 02:04:42;;;;;;;6.25;5.65;;;;;;;;;;5055360;28;20463;-60
2023/06/21 02:07:08;;;;;;;6.25;5.65;;;;;;;;;;5055870;28;20032;-60
2023/06/21 02:09:34;;;;;;;6.05;5.18;;;;;;;;;;5055515;28;20082;-60
2023/06/21 02:12:01;;;;;;;5.95;5.35;;;;;;;;;;5055332;28;20025;-60
2023/06/21 02:14:27;;;;;;;6.53;5.68;;;;;;;;;;5055284;28;20041;-60
2023/06/21 02:16:54;;;;;;;7.85;6.22;;;;;;;;;;5055405;28;20025;-60
2023/06/21 02:19:20;;;;;;;7.63;6.13;;;;;;;;;;5055886;28;20031;-60
2023/06/21 02:21:46;;;;;;;11.57;6.18;;;;;;;;;;5055230;28;20099;-60
2023/06/21 02:24:12;;;;;;;6.03;5.50;;;;;;;;;;5055047;28;20101;-60
2023/06/21 02:26:38;;;;;;;7.15;6.10;;;;;;;;;;5055283;28;20452;-60
2023/06/21 02:29:04;;;;;;;9.27;6.05;;;;;;;;;;5055397;28;20025;-60
2023/06/21 02:31:32;;;;;;;6.57;5.70;;;;;;;;;;5055205;28;20040;-60
2023/06/21 02:33:58;;;;;;;8.38;5.35;;;;;;;;;;5055411;28;20036;-60
2023/06/21 02:36:24;;;;;;;8.07;5.95;;;;;;;;;;5055424;28;20021;-60
2023/06/21 02:38:50;;;;;;;5.68;5.18;;;;;;;;;;5054940;28;20068;-60
2023/06/21 02:41:16;;;;;;;10.38;6.05;;;;;;;;;;5055684;28;20036;-60
2023/06/21 02:43:42;;;;;;;6.80;6.20;;;;;;;;;;5055343;28;20033;-60
2023/06/21 02:46:08;;;;;;;7.35;5.70;;;;;;;;;;5055236;28;20021;-60
2023/06/21 02:48:34;;;;;;;7.82;6.15;;;;;;;;;;5055026;28;20025;-60
2023/06/21 02:51:00;;;;;;;6.60;5.88;;;;;;;;;;5054673;28;20091;-60
2023/06/21 02:53:26;;;;;;;7.18;6.10;;;;;;;;;;5054668;28;20052;-62
2023/06/21 02:55:52;;;;;;;7.63;6.82;;;;;;;;;;5054654;28;20104;-61
2023/06/21 02:58:18;;;;;;;6.63;5.78;;;;;;;;;;5054951;28;20409;-59
2023/06/21 03:00:44;;;;;;;5.75;5.15;;;;;;;;;;5054503;28;20021;-59
2023/06/21 03:03:10;;;;;;;6.15;5.55;;;;;;;;;;5054173;28;20520;-59
2023/06/21 03:05:37;;;;;;;7.50;6.05;;;;;;;;;;5054526;28;20048;-59
2023/06/21 03:08:12;;;;;;;6.70;6.00;;;;;;;;;;5054407;28;20351;-59
2023/06/21 03:10:39;;;;;;;6.82;6.13;;;;;;;;;;5054985;28;20020;-59
2023/06/21 03:13:05;;;;;;;6.70;6.00;;;;;;;;;;5054293;28;20032;-59
2023/06/21 03:15:31;;;;;;;7.40;5.53;;;;;;;;;;5054092;28;20049;-59
2023/06/21 03:17:57;;;;;;;9.10;6.47;;;;;;;;;;5054219;28;20017;-59
2023/06/21 03:20:24;;;;;;;6.18;5.57;;;;;;;;;;5054219;28;20025;-59
2023/06/21 03:22:50;;;;;;;6.60;5.80;;;;;;;;;;5054070;28;20118;-59
2023/06/21 03:25:16;;;;;;;9.05;6.32;;;;;;;;;;5054450;28;20037;-59
2023/06/21 03:27:42;;;;;;;6.65;5.63;;;;;;;;;;5054635;28;20032;-59
2023/06/21 03:30:12;;;;;;;8.82;7.20;;;;;;;;;;5053691;28;20044;-59
2023/06/21 03:32:39;;;;;;;10.88;7.45;;;;;;;;;;5054842;28;20100;-60
2023/06/21 03:35:05;;;;;;;7.22;6.55;;;;;;;;;;5053678;28;20032;-60
2023/06/21 03:37:31;;;;;;;7.25;6.43;;;;;;;;;;5054131;28;20031;-60
2023/06/21 03:39:57;;;;;;;11.20;6.07;;;;;;;;;;5054580;28;20022;-60
2023/06/21 03:42:23;;;;;;;7.88;6.53;;;;;;;;;;5054136;28;20420;-60
2023/06/21 03:44:49;;;;;;;7.93;6.63;;;;;;;;;;5054243;28;20032;-60
2023/06/21 03:47:14;;;;;;;6.97;6.25;;;;;;;;;;5054527;28;20017;-60
2023/06/21 03:49:41;;;;;;;9.30;7.43;;;;;;;;;;5053877;28;20032;-60
2023/06/21 03:52:07;;;;;;;9.10;6.38;;;;;;;;;;5054664;28;20025;-60
2023/06/21 03:54:33;;;;;;;8.50;6.55;;;;;;;;;;5053858;28;20437;-60
2023/06/21 03:56:58;;;;;;;8.43;6.68;;;;;;;;;;5054435;28;20029;-60
2023/06/21 03:59:24;;;;;;;11.10;5.93;;;;;;;;;;5053807;28;20478;-60
2023/06/21 04:01:50;;;;;;;5.35;4.85;;;;;;;;;;5054158;28;20025;-60
2023/06/21 04:04:16;;;;;;;6.95;5.05;;;;;;;;;;5053736;28;20029;-60
2023/06/21 04:06:42;;;;;;;7.82;4.55;;;;;;;;;;5053675;28;20013;-60
2023/06/21 04:09:08;;;;;;;5.93;4.72;;;;;;;;;;5053300;28;20079;-60
2023/06/21 04:11:34;;;;;;;5.55;4.18;;;;;;;;;;5053962;28;20024;-60
2023/06/21 04:14:00;;;;;;;5.63;4.15;;;;;;;;;;5053778;28;20067;-60
2023/06/21 04:16:26;;;;;;;7.63;4.53;;;;;;;;;;5054557;28;20053;-60
2023/06/21 04:18:52;;;;;;;5.28;4.63;;;;;;;;;;5053540;28;20021;-60
2023/06/21 04:21:18;;;;;;;5.03;4.53;;;;;;;;;;5055863;28;20108;-60
2023/06/21 04:23:44;;;;;;;8.63;4.47;;;;;;;;;;5057526;28;20029;-60
2023/06/21 04:26:12;;;;;;;6.35;4.68;;;;;;;;;;5058402;28;20037;-60
2023/06/21 04:28:40;;;;;;;5.53;4.72;;;;;;;;;;5057864;28;20025;-60
2023/06/21 04:31:06;;;;;;;5.65;4.82;;;;;;;;;;5057430;28;20036;-60
2023/06/21 04:33:31;;;;;;;5.30;4.80;;;;;;;;;;5057605;28;20025;-60
2023/06/21 04:35:57;;;;;;;7.60;4.40;;;;;;;;;;5057295;28;20025;-60
2023/06/21 04:38:23;;;;;;;6.32;5.35;;;;;;;;;;5056894;28;20024;-60
2023/06/21 04:40:52;;;;;;;5.05;4.35;;;;;;;;;;5057145;28;20036;-60
2023/06/21 04:43:18;;;;;;;5.63;4.70;;;;;;;;;;5057203;28;20116;-60
2023/06/21 04:45:48;;;;;;;5.32;4.82;;;;;;;;;;5056782;28;20412;-60
2023/06/21 04:48:14;;;;;;;7.28;5.20;;;;;;;;;;5057452;28;20402;-60
2023/06/21 04:50:44;;;;;;;5.85;4.50;;;;;;;;;;5057372;28;20025;-60
2023/06/21 04:53:10;;;;;;;;;;;;;;;;;;5058155;28;20032;-60
2023/06/21 04:55:42;;;;;;;5.03;4.43;;;;;;;;;;5056973;28;19912;-60
2023/06/21 04:58:08;;;;;;;6.25;5.18;;;;;;;;;;5057176;28;20060;-60
2023/06/21 05:00:35;;;;;;;5.18;4.68;;;;;;;;;;5057260;28;20021;-60
2023/06/21 05:03:00;;;;;;;5.07;4.57;;;;;;;;;;5056611;28;20094;-60
2023/06/21 05:05:26;;;;;;;6.13;4.43;;;;;;;;;;5056887;28;20025;-60
2023/06/21 05:07:53;;;;;;;5.78;5.00;;;;;;;;;;5056856;28;20017;-60
2023/06/21 05:10:19;;;;;;;6.22;4.50;;;;;;;;;;5057082;28;20397;-60
2023/06/21 05:12:44;;;;;;;5.75;4.60;;;;;;;;;;5056792;28;20112;-60
2023/06/21 05:15:11;;;;;;;5.00;4.32;;;;;;;;;;5056954;28;20052;-60
2023/06/21 05:17:37;;;;;;;5.40;4.90;;;;;;;;;;5056728;28;20032;-60
2023/06/21 05:20:08;;;;;;;8.55;5.07;;;;;;;;;;5056434;28;20032;-60
2023/06/21 05:22:34;;;;;;;5.03;4.40;;;;;;;;;;5056453;28;20037;-60
2023/06/21 05:25:02;;;;;;;7.18;5.35;;;;;;;;;;5057013;28;20029;-60
2023/06/21 05:27:28;;;;;;;5.13;4.63;;;;;;;;;;5056902;28;20075;-60
2023/06/21 05:29:54;;;;;;;6.53;5.55;;;;;;;;;;5056461;28;20033;-60
2023/06/21 05:32:20;;;;;;;5.15;4.65;;;;;;;;;;5055635;28;20043;-60
2023/06/21 05:34:46;;;;;;;6.07;5.00;;;;;;;;;;5056167;28;20033;-60
2023/06/21 05:37:12;;;;;;;5.97;4.68;;;;;;;;;;5056334;28;20021;-60
2023/06/21 05:39:38;;;;;;;7.28;4.68;;;;;;;;;;5056060;28;20509;-60
2023/06/21 05:42:05;;;;;;;7.07;4.85;;;;;;;;;;5055969;28;20074;-60
2023/06/21 05:44:30;;;;;;;6.53;4.95;;;;;;;;;;5056226;28;20025;-60
2023/06/21 05:46:56;;;;;;;6.30;5.18;;;;;;;;;;5056595;28;20024;-60
2023/06/21 05:49:23;;;;;;;5.72;5.18;;;;;;;;;;5055991;28;20033;-59
2023/06/21 05:51:49;;;;;;;7.13;5.65;;;;;;;;;;5055796;28;20021;-59
2023/06/21 05:54:15;;;;;;;6.28;5.68;;;;;;;;;;5056007;28;20048;-59
2023/06/21 05:56:40;;;;;;;9.02;5.82;;;;;;;;;;5056193;28;20029;-59
2023/06/21 05:59:06;;;;;;;6.95;6.18;;;;;;;;;;5056306;28;20021;-60
2023/06/21 06:01:33;;;;;;;7.10;6.35;;;;;;;;;;5055770;28;20024;-60
2023/06/21 06:03:58;;;;;;;9.68;6.22;;;;;;;;;;5055683;28;20026;-60
2023/06/21 06:06:34;;;;;;;10.93;6.80;;;;;;;;;;5055677;28;20028;-59
2023/06/21 06:09:00;;;;;;;10.55;6.82;;;;;;;;;;5056100;28;20354;-60
2023/06/21 06:11:26;;;;;;;7.25;5.90;;;;;;;;;;5056119;28;20104;-59
2023/06/21 06:13:52;;;;;;;7.07;6.40;;;;;;;;;;5055764;28;20026;-60
2023/06/21 06:16:18;;;;;;;10.88;6.15;;;;;;;;;;5056202;28;20063;-59
2023/06/21 06:18:43;;;;;;;9.50;6.30;;;;;;;;;;5055492;28;20025;-60
2023/06/21 06:21:09;;;;;;;7.35;5.63;;;;;;;;;;5055489;28;20503;-60
2023/06/21 06:23:35;;;;;;;6.72;5.72;;;;;;;;;;5055274;28;20082;-60
2023/06/21 06:26:01;;;;;;;9.05;6.03;;;;;;;;;;5055610;28;20104;-60
2023/06/21 06:28:27;;;;;;;7.35;6.40;;;;;;;;;;5054968;28;20025;-60
2023/06/21 06:30:53;;;;;;;5.93;5.43;;;;;;;;;;5055232;28;20489;-60
2023/06/21 06:33:19;;;;;;;8.48;5.57;;;;;;;;;;5055264;28;20036;-60
2023/06/21 06:35:45;;;;;;;6.78;4.78;;;;;;;;;;5055199;28;20032;-60
2023/06/21 06:38:11;;;;;;;6.80;5.93;;;;;;;;;;5055197;28;20163;-60
2023/06/21 06:40:37;;;;;;;5.30;4.78;;;;;;;;;;5055295;28;20032;-60
2023/06/21 06:43:06;;;;;;;5.20;4.70;;;;;;;;;;5053832;28;20074;-60
2023/06/21 06:45:32;;;;;;;7.53;5.15;;;;;;;;;;5055369;28;20037;-60
2023/06/21 06:47:57;;;;;;;7.18;6.15;;;;;;;;;;5055551;28;20119;-60
2023/06/21 06:50:24;;;;;;;7.43;5.80;;;;;;;;;;5054764;28;20067;-60
2023/06/21 06:52:52;;;;;;;6.47;5.40;;;;;;;;;;5054560;28;20186;-60
2023/06/21 06:55:18;;;;;;;7.45;5.82;;;;;;;;;;5054703;28;20031;-60
2023/06/21 06:57:44;;;;;;;6.20;4.97;;;;;;;;;;5054633;28;20017;-60
2023/06/21 07:00:12;;;;;;;6.25;4.95;;;;;;;;;;5054630;28;20029;-60
2023/06/21 07:02:38;;;;;;;7.13;4.63;;;;;;;;;;5054561;28;20041;-60
2023/06/21 07:05:04;;;;;;;6.55;4.65;;;;;;;;;;5055208;28;20469;-60
2023/06/21 07:07:30;;;;;;;6.18;4.75;;;;;;;;;;5054666;28;20024;-60
2023/06/21 07:09:55;;;;;;;7.18;5.35;;;;;;;;;;5054475;28;20451;-60
2023/06/21 07:12:21;;;;;;;5.15;4.65;;;;;;;;;;5054841;28;20407;-60
2023/06/21 07:14:47;;;;;;;7.50;5.45;;;;;;;;;;5054320;28;20475;-60
2023/06/21 07:17:13;;;;;;;11.75;5.53;;;;;;;;;;5054770;28;20371;-60
2023/06/21 07:19:41;;;;;;;8.30;5.40;;;;;;;;;;5054261;28;20033;-60
2023/06/21 07:22:07;;;;;;;6.90;5.38;;;;;;;;;;5055002;28;20024;-60
2023/06/21 07:24:33;;;;;;;4.32;3.90;;;;;;;;;;5054301;28;20083;-60
2023/06/21 07:26:59;;;;;;;6.63;4.93;;;;;;;;;;5054467;28;20486;-60
2023/06/21 07:29:25;;;;;;;7.45;5.65;;;;;;;;;;5054061;28;20064;-60
2023/06/21 07:31:51;;;;;;;6.25;4.28;;;;;;;;;;5054151;28;20027;-60
2023/06/21 07:34:17;;;;;;;5.70;4.47;;;;;;;;;;5053896;28;20029;-60
2023/06/21 07:36:43;;;;;;;5.78;4.65;;;;;;;;;;5054413;28;20017;-60
2023/06/21 07:39:09;;;;;;;7.13;4.22;;;;;;;;;;5054013;28;20017;-60
2023/06/21 07:41:35;;;;;;;6.95;5.40;;;;;;;;;;5054491;28;20075;-60
2023/06/21 07:44:01;;;;;;;5.97;5.05;;;;;;;;;;5053911;28;20482;-60
2023/06/21 07:46:27;;;;;;;7.40;4.47;;;;;;;;;;5054030;28;20025;-61
2023/06/21 07:48:52;;;;;;;6.22;4.40;;;;;;;;;;5053913;28;20025;-61
2023/06/21 07:51:18;;;;;;;5.07;3.90;;;;;;;;;;5053933;28;20029;-61
2023/06/21 07:53:44;;;;;;;5.35;4.85;;;;;;;;;;5053594;28;20073;-60
2023/06/21 07:56:14;;;;;;;5.97;4.70;;;;;;;;;;5053802;28;20029;-60
2023/06/21 07:58:41;;;;;;;5.10;3.85;;;;;;;;;;5053808;28;20056;-60
2023/06/21 08:01:07;;;;;;;7.57;4.57;;;;;;;;;;5054514;28;20025;-60
2023/06/21 08:03:33;;;;;;;4.63;4.22;;;;;;;;;;5053978;28;20033;-60
2023/06/21 08:05:59;;;;;;;7.55;4.88;;;;;;;;;;5053719;28;20104;-60
2023/06/21 08:08:25;;;;;;;8.15;5.30;;;;;;;;;;5053567;28;20060;-59
2023/06/21 08:10:51;;;;;;;7.43;5.68;;;;;;;;;;5053677;28;20025;-60
2023/06/21 08:13:22;;;;;;;5.15;4.28;;;;;;;;;;5054278;28;20025;-59
2023/06/21 08:15:48;;;;;;;9.00;5.07;;;;;;;;;;5053667;28;20134;-60
2023/06/21 08:18:14;;;;;;;4.45;3.90;;;;;;;;;;5053486;28;20021;-60
2023/06/21 08:20:40;;;;;;;5.47;4.85;;;;;;;;;;5053428;28;20028;-60
2023/06/21 08:23:07;;;;;;;6.07;4.75;;;;;;;;;;5053020;28;20372;-60
2023/06/21 08:25:33;;;;;;;5.78;4.07;;;;;;;;;;5053526;28;20017;-60
2023/06/21 08:27:59;;;;;;;5.88;4.75;;;;;;;;;;5054036;28;20044;-60
2023/06/21 08:30:25;;;;;;;7.60;5.28;;;;;;;;;;5053279;28;20463;-60
2023/06/21 08:32:51;;;;;;;6.22;5.13;;;;;;;;;;5053514;28;20029;-60
2023/06/21 08:35:17;;;;;;;6.40;5.15;;;;;;;;;;5053945;28;20029;-60
2023/06/21 08:37:53;;;;;;;4.57;4.13;;;;;;;;;;5053963;28;20447;-60
2023/06/21 08:40:24;;;;;;;6.53;5.72;;;;;;;;;;5053970;28;20082;-60
2023/06/21 08:42:50;;;;;;;;;;;;;;;;;;5054273;28;20036;-60
2023/06/21 08:45:16;;;;;;;9.02;5.60;;;;;;;;;;5053195;28;19912;-60
2023/06/21 08:47:42;;;;;;;8.02;5.43;;;;;;;;;;5053663;28;20455;-60
2023/06/21 08:50:11;;;;;;;4.78;4.03;;;;;;;;;;5053620;28;20021;-60
2023/06/21 08:52:38;;;;;;;4.45;3.53;;;;;;;;;;5053236;28;20028;-60
2023/06/21 08:55:06;;;;;;;6.40;4.65;;;;;;;;;;5053549;28;20374;-60
2023/06/21 08:57:37;;;;;;;8.77;4.90;;;;;;;;;;5053266;28;20057;-60
2023/06/21 09:00:04;;;;;;;5.45;4.45;;;;;;;;;;5053468;28;20021;-60
2023/06/21 09:02:42;;;;;;;5.75;4.57;;;;;;;;;;5052833;28;20536;-60
2023/06/21 09:05:15;;;;;;;6.03;4.53;;;;;;;;;;5053800;28;20115;-60
2023/06/21 09:07:41;;;;;;;4.88;4.40;;;;;;;;;;5055880;28;20025;-60
2023/06/21 09:10:09;;;;;;;5.88;4.97;;;;;;;;;;5057543;28;20025;-60
2023/06/21 09:12:35;;;;;;;5.95;4.90;;;;;;;;;;5056656;28;20119;-60
2023/06/21 09:15:02;;;;;;;10.90;5.57;;;;;;;;;;5056564;28;20103;-61
2023/06/21 09:17:28;;;;;;;5.60;4.80;;;;;;;;;;5056911;28;20447;-61
2023/06/21 09:19:54;;;;;;;6.25;5.65;;;;;;;;;;5056987;28;20029;-61
2023/06/21 09:22:24;;;;;;;7.03;5.88;;;;;;;;;;5056625;28;20490;-61
2023/06/21 09:24:50;;;;;;;6.93;4.90;;;;;;;;;;5056341;28;20036;-61
2023/06/21 09:27:16;;;;;;;5.60;4.90;;;;;;;;;;5056837;28;20023;-61
2023/06/21 09:29:42;;;;;;;10.75;5.25;;;;;;;;;;5055848;28;20021;-61
2023/06/21 09:32:08;;;;;;;8.98;6.43;;;;;;;;;;5056077;28;20104;-61
2023/06/21 09:34:34;;;;;;;7.28;5.97;;;;;;;;;;5056165;28;20407;-61
2023/06/21 09:37:00;;;;;;;9.43;5.65;;;;;;;;;;5056620;28;20037;-61
2023/06/21 09:39:28;;;;;;;7.28;5.75;;;;;;;;;;5056065;28;20025;-61
2023/06/21 09:41:55;;;;;;;8.70;6.60;;;;;;;;;;5057402;28;20022;-61
2023/06/21 09:44:21;;;;;;;7.68;6.38;;;;;;;;;;5055531;28;20029;-61
2023/06/21 09:46:48;;;;;;;6.97;5.30;;;;;;;;;;5056080;28;20021;-61
2023/06/21 09:49:15;;;;;;;10.80;6.22;;;;;;;;;;5056296;28;20064;-61
2023/06/21 09:51:42;;;;;;;6.82;5.90;;;;;;;;;;5055946;28;20025;-61
2023/06/21 09:54:08;;;;;;;6.57;5.97;;;;;;;;;;5056789;28;20029;-61
2023/06/21 09:56:35;;;;;;;7.68;6.82;;;;;;;;;;5056420;28;20025;-61
2023/06/21 09:59:02;;;;;;;11.43;7.30;;;;;;;;;;5055762;28;20078;-61
2023/06/21 10:01:38;;;;;;;7.30;6.60;;;;;;;;;;5055506;28;20464;-61
2023/06/21 10:04:10;;;;;;;7.65;6.95;;;;;;;;;;5056246;28;20045;-61
2023/06/21 10:06:36;;;;;;;8.75;6.60;;;;;;;;;;5056487;28;20029;-61
2023/06/21 10:09:02;;;;;;;9.43;8.27;;;;;;;;;;5055921;28;20479;-61
2023/06/21 10:11:27;;;;;;;11.35;7.88;;;;;;;;;;5055629;28;20049;-61
2023/06/21 10:13:54;;;;;;;9.55;7.70;;;;;;;;;;5055120;28;20025;-61
2023/06/21 10:16:21;;;;;;;8.80;7.90;;;;;;;;;;5056517;28;20052;-60
2023/06/21 10:18:50;;;;;;;9.10;7.68;;;;;;;;;;5054618;28;20024;-61
2023/06/21 10:21:18;;;;;;;11.88;8.70;;;;;;;;;;5055518;28;20024;-61
2023/06/21 10:23:47;;;;;;;9.48;8.27;;;;;;;;;;5055506;28;20061;-61
2023/06/21 10:26:13;;;;;;;11.52;8.60;;;;;;;;;;5055986;28;20029;-61
2023/06/21 10:28:45;;;;;;;14.25;8.90;;;;;;;;;;5055381;28;20459;-61
2023/06/21 10:31:12;;;;;;;11.48;8.80;;;;;;;;;;5055885;28;20025;-61
2023/06/21 10:33:38;;;;;;;11.73;9.40;;;;;;;;;;5055277;28;20029;-60
2023/06/21 10:36:05;;;;;;;10.80;9.02;;;;;;;;;;5055093;28;20071;-60
2023/06/21 10:38:40;;;;;;;11.88;9.00;;;;;;;;;;5055161;28;20044;-60
2023/06/21 10:41:06;;;;;;;12.60;9.65;;;;;;;;;;5055088;28;20025;-60
2023/06/21 10:43:32;;;;;;;9.93;8.93;;;;;;;;;;5055805;28;20041;-60
2023/06/21 10:45:59;;;;;;;11.07;9.95;;;;;;;;;;5055862;28;20071;-60
2023/06/21 10:48:26;;;;;;;10.35;9.40;;;;;;;;;;5055257;28;20053;-60
2023/06/21 10:50:52;;;;;;;10.57;9.45;;;;;;;;;;5055725;28;20021;-60
2023/06/21 10:53:19;;;;;;;9.52;8.63;;;;;;;;;;5054792;28;20029;-57
2023/06/21 10:55:46;;;;;;;9.55;8.60;;;;;;;;;;5054608;28;20029;-57
2023/06/21 10:58:13;;;;;;;8.93;8.05;;;;;;;;;;5055078;28;20079;-57
2023/06/21 11:00:39;;;;;;;9.52;8.07;;;;;;;;;;5054708;28;20032;-57
2023/06/21 11:03:05;;;;;;;10.68;8.45;;;;;;;;;;5054620;28;20367;-57
2023/06/21 11:05:33;;;;;;;8.77;7.93;;;;;;;;;;5053302;28;20024;-57
2023/06/21 11:08:00;;;;;;;9.45;8.57;;;;;;;;;;5054942;28;20067;-57
2023/06/21 11:10:31;;;;;;;8.18;7.45;;;;;;;;;;5054475;28;20117;-57
2023/06/21 11:12:57;;;;;;;;;;;;;;;;;;5054892;28;20064;-57
2023/06/21 11:15:25;;;;;;;8.13;6.97;;;;;;;;;;5054575;28;20019;-57
2023/06/21 11:17:55;;;;;;;9.00;8.13;;;;;;;;;;5054598;28;20060;-57
2023/06/21 11:20:22;;;;;;;8.48;7.57;;;;;;;;;;5054271;28;20017;-57
2023/06/21 11:22:58;;;;;;;8.32;7.47;;;;;;;;;;5054437;28;20048;-57
2023/06/21 11:25:25;;;;;;;7.55;6.85;;;;;;;;;;5054306;28;20531;-57
2023/06/21 11:28:09;;;;;;;8.15;7.35;;;;;;;;;;5054658;28;20406;-57
2023/06/21 11:30:36;;;;;;;9.18;7.82;;;;;;;;;;5053745;28;20082;-57
2023/06/21 11:33:02;;;;;;;9.02;7.30;;;;;;;;;;5054134;28;20029;-57
2023/06/21 11:35:48;;;;;;;8.25;7.45;;;;;;;;;;5054209;28;20028;-57
2023/06/21 11:38:14;;;;;;;7.07;6.35;;;;;;;;;;5054639;28;20029;-57
2023/06/21 11:40:40;;;;;;;8.40;6.97;;;;;;;;;;5054037;28;20056;-57
2023/06/21 11:43:06;;;;;;;8.13;7.32;;;;;;;;;;5053933;28;20106;-57
2023/06/21 11:45:36;;;;;;;8.05;7.25;;;;;;;;;;5054013;28;20036;-57
2023/06/21 11:48:02;;;;;;;;;;;;;;;;;;5054888;28;20037;-57
2023/06/21 11:50:33;;;;;;;8.90;7.30;;;;;;;;;;5054081;28;20021;-57
2023/06/21 11:53:11;;;;;;;10.07;6.68;;;;;;;;;;5054885;28;20031;-57
2023/06/21 11:55:39;;;;;;;8.95;6.85;;;;;;;;;;5053789;28;20024;-57
2023/06/21 11:58:07;;;;;;;7.50;6.80;;;;;;;;;;5053797;28;20032;-57
2023/06/21 12:00:33;;;;;;;7.68;6.32;;;;;;;;;;5053758;28;20029;-57
2023/06/21 12:03:01;;;;;;;7.78;6.15;;;;;;;;;;5053627;28;20509;-57
2023/06/21 12:05:27;;;;;;;7.97;6.13;;;;;;;;;;5053664;28;20444;-57
2023/06/21 12:07:52;;;;;;;6.82;5.80;;;;;;;;;;5053854;28;20036;-57
2023/06/21 12:10:19;;;;;;;6.07;5.35;;;;;;;;;;5053662;28;20091;-57
2023/06/21 12:12:44;;;;;;;6.53;5.82;;;;;;;;;;5053589;28;20068;-57
2023/06/21 12:15:11;;;;;;;7.53;6.43;;;;;;;;;;5053378;28;20076;-57
2023/06/21 12:17:37;;;;;;;6.40;5.80;;;;;;;;;;5053561;28;20067;-57
2023/06/21 12:20:05;;;;;;;7.97;6.40;;;;;;;;;;5053873;28;20051;-57
2023/06/21 12:22:31;;;;;;;6.35;5.10;;;;;;;;;;5054237;28;20044;-58
2023/06/21 12:24:57;;;;;;;8.88;5.57;;;;;;;;;;5053445;28;20025;-59
2023/06/21 12:27:22;;;;;;;5.82;5.03;;;;;;;;;;5054084;28;20029;-59
2023/06/21 12:29:51;;;;;;;6.68;5.20;;;;;;;;;;5053535;28;20112;-59
2023/06/21 12:32:18;;;;;;;7.57;6.80;;;;;;;;;;5053429;28;20029;-59
2023/06/21 12:34:44;;;;;;;5.85;5.22;;;;;;;;;;5053387;28;20044;-59
2023/06/21 12:37:16;;;;;;;5.20;4.68;;;;;;;;;;5053443;28;20423;-59
2023/06/21 12:39:48;;;;;;;8.73;6.47;;;;;;;;;;5053900;28;20052;-59
2023/06/21 12:42:14;;;;;;;6.25;5.38;;;;;;;;;;5056206;28;20063;-59
2023/06/21 12:44:40;;;;;;;5.40;4.60;;;;;;;;;;5057025;28;20059;-59
2023/06/21 12:47:07;;;;;;;5.60;4.97;;;;;;;;;;5057579;28;20021;-60
2023/06/21 12:49:33;;;;;;;6.13;5.53;;;;;;;;;;5057409;28;20151;-59
2023/06/21 12:52:01;;;;;;;5.32;4.72;;;;;;;;;;5057218;28;20084;-59
2023/06/21 12:54:27;;;;;;;5.68;5.15;;;;;;;;;;5057160;28;20032;-59
2023/06/21 12:56:58;;;;;;;6.38;5.70;;;;;;;;;;5057355;28;20021;-59
2023/06/21 12:59:24;;;;;;;6.30;5.70;;;;;;;;;;5057564;28;20024;-59
2023/06/21 13:01:53;;;;;;;6.28;5.68;;;;;;;;;;5057156;28;20076;-59
2023/06/21 13:04:19;;;;;;;6.05;5.20;;;;;;;;;;5056668;28;20025;-59
2023/06/21 13:06:45;;;;;;;5.68;5.13;;;;;;;;;;5057494;28;20025;-59
2023/06/21 13:09:12;;;;;;;8.75;5.15;;;;;;;;;;5056577;28;20389;-60
2023/06/21 13:11:39;;;;;;;5.53;4.88;;;;;;;;;;5057264;28;20028;-59
2023/06/21 13:14:05;;;;;;;5.82;4.15;;;;;;;;;;5056823;28;20029;-59
2023/06/21 13:16:31;;;;;;;7.00;4.20;;;;;;;;;;5057336;28;20103;-60
2023/06/21 13:18:57;;;;;;;5.18;4.47;;;;;;;;;;5056548;28;20067;-60
2023/06/21 13:21:24;;;;;;;6.70;5.60;;;;;;;;;;5057027;28;20427;-59
2023/06/21 13:23:50;;;;;;;6.80;5.72;;;;;;;;;;5056505;28;20093;-59
2023/06/21 13:26:16;;;;;;;6.43;5.20;;;;;;;;;;5057462;28;20087;-59
2023/06/21 13:28:42;;;;;;;9.00;4.15;;;;;;;;;;5057031;28;20021;-60
2023/06/21 13:31:08;;;;;;;5.72;4.85;;;;;;;;;;5056397;28;20044;-59
2023/06/21 13:33:34;;;;;;;5.68;5.13;;;;;;;;;;5056314;28;20025;-59
2023/06/21 13:36:00;;;;;;;5.82;4.82;;;;;;;;;;5056803;28;20540;-60
2023/06/21 13:38:29;;;;;;;6.65;5.75;;;;;;;;;;5056737;28;20079;-60
2023/06/21 13:40:55;;;;;;;6.97;4.82;;;;;;;;;;5056209;28;20021;-59
2023/06/21 13:43:23;;;;;;;7.60;5.40;;;;;;;;;;5055889;28;20118;-60
2023/06/21 13:45:49;;;;;;;5.78;5.13;;;;;;;;;;5056382;28;20028;-60
2023/06/21 13:48:16;;;;;;;6.20;5.20;;;;;;;;;;5056412;28;20082;-60
2023/06/21 13:50:42;;;;;;;6.63;5.13;;;;;;;;;;5056491;28;20033;-60
2023/06/21 13:53:08;;;;;;;6.60;5.20;;;;;;;;;;5055886;28;20451;-60
2023/06/21 13:55:34;;;;;;;7.25;5.57;;;;;;;;;;5054646;28;20068;-60
2023/06/21 13:58:00;;;;;;;5.93;5.22;;;;;;;;;;5056416;28;20025;-60
2023/06/21 14:00:27;;;;;;;8.95;6.32;;;;;;;;;;5056155;28;20083;-60
2023/06/21 14:02:53;;;;;;;5.72;5.18;;;;;;;;;;5055552;28;20025;-60
2023/06/21 14:05:22;;;;;;;6.18;4.95;;;;;;;;;;5055660;28;20083;-60
2023/06/21 14:07:49;;;;;;;5.72;4.68;;;;;;;;;;5056003;28;20028;-60
2023/06/21 14:10:15;;;;;;;9.10;5.45;;;;;;;;;;5056048;28;20043;-61
2023/06/21 14:12:43;;;;;;;5.97;5.38;;;;;;;;;;5055788;28;20090;-60
2023/06/21 14:15:09;;;;;;;5.68;5.00;;;;;;;;;;5055326;28;20053;-61
2023/06/21 14:17:36;;;;;;;5.32;4.53;;;;;;;;;;5055508;28;20025;-60
2023/06/21 14:20:06;;;;;;;7.65;4.78;;;;;;;;;;5055393;28;20071;-60
2023/06/21 14:22:36;;;;;;;12.27;4.75;;;;;;;;;;5055770;28;20037;-60
2023/06/21 14:25:03;;;;;;;6.03;4.38;;;;;;;;;;5055468;28;20098;-60
2023/06/21 14:27:29;;;;;;;6.13;5.53;;;;;;;;;;5055792;28;20032;-60
2023/06/21 14:29:58;;;;;;;5.53;4.80;;;;;;;;;;5055366;28;20017;-60
2023/06/21 14:32:24;;;;;;;7.47;5.13;;;;;;;;;;5055279;28;20414;-61
2023/06/21 14:34:50;;;;;;;8.75;4.85;;;;;;;;;;5055262;28;20032;-61
2023/06/21 14:37:16;;;;;;;5.75;4.80;;;;;;;;;;5055587;28;20477;-61
2023/06/21 14:39:42;;;;;;;6.65;5.18;;;;;;;;;;5055651;28;20035;-61
2023/06/21 14:42:09;;;;;;;5.40;4.90;;;;;;;;;;5055148;28;20364;-61